sensor_id;sensor_type;location;lat;lon;timestamp;temperature;humidity
33811;DHT22;20119;48.334;16.206;2023-04-23T00:00:35;13.00;99.90
33811;DHT22;20119;48.334;16.206;2023-04-23T00:03:06;12.80;99.90
33811;DHT22;20119;48.334;16.206;2023-04-23T00:05:36;12.70;99.90
33811;DHT22;20119;48.334;16.206;2023-04-23T00:08:04;12.80;99.90
33811;DHT22;20119;48.334;16.206;2023-04-23T00:10:32;12.80;99.90
33811;DHT22;20119;48.334;16.206;2023-04-23T00:13:00;12.60;99.90
33811;DHT22;20119;48.334;16.206;2023-04-23T00:15:29;12.70;99.90
33811;DHT22;20119;48.334;16.206;2023-04-23T00:17:57;12.70;99.90
33811;DHT22;20119;48.334;16.206;2023-04-23T00:20:25;12.60;99.90
33811;DHT22;20119;48.334;16.206;2023-04-23T00:22:52;12.50;99.90
33811;DHT22;20119;48.334;16.206;2023-04-23T00:25:19;12.40;99.90
33811;DHT22;20119;48.334;16.206;2023-04-23T00:27:47;12.50;99.90
33811;DHT22;20119;48.334;16.206;2023-04-23T00:30:16;12.40;99.90
33811;DHT22;20119;48.334;16.206;2023-04-23T00:32:45;12.40;99.90
33811;DHT22;20119;48.334;16.206;2023-04-23T00:35:14;12.30;99.90
33811;DHT22;20119;48.334;16.206;2023-04-23T00:37:41;12.20;99.90
33811;DHT22;20119;48.334;16.206;2023-04-23T00:40:09;12.10;99.90
33811;DHT22;20119;48.334;16.206;2023-04-23T00:42:37;12.00;99.90
33811;DHT22;20119;48.334;16.206;2023-04-23T00:45:06;12.10;99.90
33811;DHT22;20119;48.334;16.206;2023-04-23T00:47:35;12.10;99.90
33811;DHT22;20119;48.334;16.206;2023-04-23T00:50:06;11.90;99.90
33811;DHT22;20119;48.334;16.206;2023-04-23T00:52:34;11.90;99.90
33811;DHT22;20119;48.334;16.206;2023-04-23T00:55:04;11.80;99.90
33811;DHT22;20119;48.334;16.206;2023-04-23T00:57:32;12.00;99.90
33811;DHT22;20119;48.334;16.206;2023-04-23T01:00:00;11.80;99.90
33811;DHT22;20119;48.334;16.206;2023-04-23T01:02:28;11.80;99.90
33811;DHT22;20119;48.334;16.206;2023-04-23T01:04:57;11.70;99.90
33811;DHT22;20119;48.334;16.206;2023-04-23T01:07:27;11.50;99.90
33811;DHT22;20119;48.334;16.206;2023-04-23T01:09:54;11.40;99.90
33811;DHT22;20119;48.334;16.206;2023-04-23T01:12:23;11.20;99.90
33811;DHT22;20119;48.334;16.206;2023-04-23T01:14:51;11.20;99.90
33811;DHT22;20119;48.334;16.206;2023-04-23T01:17:19;11.20;99.90
33811;DHT22;20119;48.334;16.206;2023-04-23T01:19:47;11.10;99.90
33811;DHT22;20119;48.334;16.206;2023-04-23T01:22:17;11.00;99.90
33811;DHT22;20119;48.334;16.206;2023-04-23T01:24:44;10.90;99.90
33811;DHT22;20119;48.334;16.206;2023-04-23T01:27:12;10.80;99.90
33811;DHT22;20119;48.334;16.206;2023-04-23T01:29:41;10.70;99.90
33811;DHT22;20119;48.334;16.206;2023-04-23T01:32:09;10.60;99.90
33811;DHT22;20119;48.334;16.206;2023-04-23T01:34:37;10.60;99.90
33811;DHT22;20119;48.334;16.206;2023-04-23T01:37:06;10.40;99.90
33811;DHT22;20119;48.334;16.206;2023-04-23T01:39:35;10.30;99.90
33811;DHT22;20119;48.334;16.206;2023-04-23T01:42:04;10.30;99.90
33811;DHT22;20119;48.334;16.206;2023-04-23T01:44:32;10.20;99.90
33811;DHT22;20119;48.334;16.206;2023-04-23T01:46:59;10.10;99.90
33811;DHT22;20119;48.334;16.206;2023-04-23T01:49:27;10.10;99.90
33811;DHT22;20119;48.334;16.206;2023-04-23T01:51:54;10.20;99.90
33811;DHT22;20119;48.334;16.206;2023-04-23T01:54:21;10.10;99.90
33811;DHT22;20119;48.334;16.206;2023-04-23T01:56:50;10.00;99.90
33811;DHT22;20119;48.334;16.206;2023-04-23T01:59:20;9.90;99.90
33811;DHT22;20119;48.334;16.206;2023-04-23T02:01:49;9.80;99.90
33811;DHT22;20119;48.334;16.206;2023-04-23T02:04:17;9.70;99.90
33811;DHT22;20119;48.334;16.206;2023-04-23T02:06:46;9.70;99.90
33811;DHT22;20119;48.334;16.206;2023-04-23T02:09:15;9.60;99.90
33811;DHT22;20119;48.334;16.206;2023-04-23T02:11:42;9.60;99.90
33811;DHT22;20119;48.334;16.206;2023-04-23T02:14:12;9.50;99.90
33811;DHT22;20119;48.334;16.206;2023-04-23T02:16:42;9.40;99.90
33811;DHT22;20119;48.334;16.206;2023-04-23T02:19:10;9.40;99.90
33811;DHT22;20119;48.334;16.206;2023-04-23T02:21:40;9.30;99.90
33811;DHT22;20119;48.334;16.206;2023-04-23T02:24:08;9.30;99.90
33811;DHT22;20119;48.334;16.206;2023-04-23T02:26:35;9.20;99.90
33811;DHT22;20119;48.334;16.206;2023-04-23T02:29:04;9.10;99.90
33811;DHT22;20119;48.334;16.206;2023-04-23T02:31:33;9.00;99.90
33811;DHT22;20119;48.334;16.206;2023-04-23T02:34:01;8.90;99.90
33811;DHT22;20119;48.334;16.206;2023-04-23T02:36:29;8.80;99.90
33811;DHT22;20119;48.334;16.206;2023-04-23T02:38:57;8.70;99.90
33811;DHT22;20119;48.334;16.206;2023-04-23T02:41:25;8.60;99.90
33811;DHT22;20119;48.334;16.206;2023-04-23T02:43:53;8.60;99.90
33811;DHT22;20119;48.334;16.206;2023-04-23T02:46:20;8.50;99.90
33811;DHT22;20119;48.334;16.206;2023-04-23T02:48:49;8.50;99.90
33811;DHT22;20119;48.334;16.206;2023-04-23T02:51:17;8.40;99.90
33811;DHT22;20119;48.334;16.206;2023-04-23T02:53:46;8.30;99.90
33811;DHT22;20119;48.334;16.206;2023-04-23T02:56:15;8.30;99.90
33811;DHT22;20119;48.334;16.206;2023-04-23T02:58:42;8.30;99.90
33811;DHT22;20119;48.334;16.206;2023-04-23T03:01:10;8.20;99.90
33811;DHT22;20119;48.334;16.206;2023-04-23T03:03:38;8.20;99.90
33811;DHT22;20119;48.334;16.206;2023-04-23T03:06:07;8.10;99.90
33811;DHT22;20119;48.334;16.206;2023-04-23T03:08:34;8.10;99.90
33811;DHT22;20119;48.334;16.206;2023-04-23T03:11:02;8.00;99.90
33811;DHT22;20119;48.334;16.206;2023-04-23T03:13:30;8.00;99.90
33811;DHT22;20119;48.334;16.206;2023-04-23T03:15:58;7.90;99.90
33811;DHT22;20119;48.334;16.206;2023-04-23T03:18:26;7.90;99.90
33811;DHT22;20119;48.334;16.206;2023-04-23T03:20:55;7.90;99.90
33811;DHT22;20119;48.334;16.206;2023-04-23T03:23:25;7.80;99.90
33811;DHT22;20119;48.334;16.206;2023-04-23T03:25:53;7.80;99.90
33811;DHT22;20119;48.334;16.206;2023-04-23T03:28:21;7.60;99.90
33811;DHT22;20119;48.334;16.206;2023-04-23T03:30:51;7.60;99.90
33811;DHT22;20119;48.334;16.206;2023-04-23T03:33:22;7.50;99.90
33811;DHT22;20119;48.334;16.206;2023-04-23T03:35:50;7.50;99.90
33811;DHT22;20119;48.334;16.206;2023-04-23T03:38:17;7.60;99.90
33811;DHT22;20119;48.334;16.206;2023-04-23T03:40:47;7.50;99.90
33811;DHT22;20119;48.334;16.206;2023-04-23T03:43:14;7.50;99.90
33811;DHT22;20119;48.334;16.206;2023-04-23T03:45:42;7.50;99.90
33811;DHT22;20119;48.334;16.206;2023-04-23T03:48:09;7.50;99.90
33811;DHT22;20119;48.334;16.206;2023-04-23T03:50:37;7.40;99.90
33811;DHT22;20119;48.334;16.206;2023-04-23T03:53:05;7.40;99.90
33811;DHT22;20119;48.334;16.206;2023-04-23T03:55:35;7.40;99.90
33811;DHT22;20119;48.334;16.206;2023-04-23T03:58:05;7.30;99.90
33811;DHT22;20119;48.334;16.206;2023-04-23T04:00:34;7.20;99.90
33811;DHT22;20119;48.334;16.206;2023-04-23T04:03:01;7.20;99.90
33811;DHT22;20119;48.334;16.206;2023-04-23T04:05:29;7.20;99.90
33811;DHT22;20119;48.334;16.206;2023-04-23T04:07:56;7.20;99.90
33811;DHT22;20119;48.334;16.206;2023-04-23T04:10:23;7.20;99.90
33811;DHT22;20119;48.334;16.206;2023-04-23T04:12:51;7.30;99.90
33811;DHT22;20119;48.334;16.206;2023-04-23T04:15:21;7.30;99.90
33811;DHT22;20119;48.334;16.206;2023-04-23T04:17:48;7.30;99.90
33811;DHT22;20119;48.334;16.206;2023-04-23T04:20:34;7.30;99.90
33811;DHT22;20119;48.334;16.206;2023-04-23T04:23:00;7.40;99.90
33811;DHT22;20119;48.334;16.206;2023-04-23T04:25:28;7.50;99.90
33811;DHT22;20119;48.334;16.206;2023-04-23T04:27:55;7.70;99.90
33811;DHT22;20119;48.334;16.206;2023-04-23T04:30:25;7.80;99.90
33811;DHT22;20119;48.334;16.206;2023-04-23T04:32:52;8.00;99.90
33811;DHT22;20119;48.334;16.206;2023-04-23T04:35:20;8.20;99.90
33811;DHT22;20119;48.334;16.206;2023-04-23T04:37:49;8.40;99.90
33811;DHT22;20119;48.334;16.206;2023-04-23T04:40:18;8.60;99.90
33811;DHT22;20119;48.334;16.206;2023-04-23T04:42:46;9.10;99.90
33811;DHT22;20119;48.334;16.206;2023-04-23T04:45:13;9.50;99.90
33811;DHT22;20119;48.334;16.206;2023-04-23T04:47:43;10.20;99.90
33811;DHT22;20119;48.334;16.206;2023-04-23T04:50:11;10.80;99.90
33811;DHT22;20119;48.334;16.206;2023-04-23T04:52:38;11.40;99.90
33811;DHT22;20119;48.334;16.206;2023-04-23T04:55:06;11.90;99.90
33811;DHT22;20119;48.334;16.206;2023-04-23T04:57:33;12.20;99.90
33811;DHT22;20119;48.334;16.206;2023-04-23T05:00:07;12.50;99.90
33811;DHT22;20119;48.334;16.206;2023-04-23T05:02:49;12.30;99.90
33811;DHT22;20119;48.334;16.206;2023-04-23T05:05:18;12.20;99.90
33811;DHT22;20119;48.334;16.206;2023-04-23T05:07:48;12.20;99.90
33811;DHT22;20119;48.334;16.206;2023-04-23T05:10:17;12.50;99.90
33811;DHT22;20119;48.334;16.206;2023-04-23T05:12:45;13.00;99.90
33811;DHT22;20119;48.334;16.206;2023-04-23T05:15:13;13.60;99.90
33811;DHT22;20119;48.334;16.206;2023-04-23T05:17:41;14.10;99.90
33811;DHT22;20119;48.334;16.206;2023-04-23T05:20:10;14.30;99.90
33811;DHT22;20119;48.334;16.206;2023-04-23T05:22:39;14.40;99.90
33811;DHT22;20119;48.334;16.206;2023-04-23T05:25:08;14.60;99.90
33811;DHT22;20119;48.334;16.206;2023-04-23T05:27:36;15.10;99.90
33811;DHT22;20119;48.334;16.206;2023-04-23T05:30:05;16.00;99.90
33811;DHT22;20119;48.334;16.206;2023-04-23T05:32:33;15.80;99.90
33811;DHT22;20119;48.334;16.206;2023-04-23T05:35:01;15.70;99.90
33811;DHT22;20119;48.334;16.206;2023-04-23T05:37:31;16.10;99.90
33811;DHT22;20119;48.334;16.206;2023-04-23T05:39:58;16.20;99.90
33811;DHT22;20119;48.334;16.206;2023-04-23T05:42:44;16.70;99.90
33811;DHT22;20119;48.334;16.206;2023-04-23T05:45:11;17.30;99.90
33811;DHT22;20119;48.334;16.206;2023-04-23T05:47:39;16.70;99.90
33811;DHT22;20119;48.334;16.206;2023-04-23T05:50:07;15.90;99.90
33811;DHT22;20119;48.334;16.206;2023-04-23T05:52:37;15.70;99.90
33811;DHT22;20119;48.334;16.206;2023-04-23T05:55:05;15.60;99.90
33811;DHT22;20119;48.334;16.206;2023-04-23T05:57:36;15.70;99.90
33811;DHT22;20119;48.334;16.206;2023-04-23T06:00:04;15.70;99.90
33811;DHT22;20119;48.334;16.206;2023-04-23T06:02:34;15.90;99.90
33811;DHT22;20119;48.334;16.206;2023-04-23T06:05:01;16.10;99.90
33811;DHT22;20119;48.334;16.206;2023-04-23T06:07:29;16.00;99.90
33811;DHT22;20119;48.334;16.206;2023-04-23T06:09:58;16.10;99.90
33811;DHT22;20119;48.334;16.206;2023-04-23T06:12:26;16.40;99.90
33811;DHT22;20119;48.334;16.206;2023-04-23T06:14:54;16.80;99.90
33811;DHT22;20119;48.334;16.206;2023-04-23T06:17:21;17.20;99.90
33811;DHT22;20119;48.334;16.206;2023-04-23T06:19:48;17.00;99.90
33811;DHT22;20119;48.334;16.206;2023-04-23T06:22:16;17.10;99.90
33811;DHT22;20119;48.334;16.206;2023-04-23T06:24:43;17.40;99.90
33811;DHT22;20119;48.334;16.206;2023-04-23T06:27:12;17.20;99.90
33811;DHT22;20119;48.334;16.206;2023-04-23T06:29:40;17.50;99.90
33811;DHT22;20119;48.334;16.206;2023-04-23T06:32:08;18.20;99.90
33811;DHT22;20119;48.334;16.206;2023-04-23T06:34:35;18.70;99.90
33811;DHT22;20119;48.334;16.206;2023-04-23T06:37:02;18.30;99.90
33811;DHT22;20119;48.334;16.206;2023-04-23T06:39:30;18.40;99.90
33811;DHT22;20119;48.334;16.206;2023-04-23T06:41:58;18.80;99.90
33811;DHT22;20119;48.334;16.206;2023-04-23T06:44:27;19.30;99.90
33811;DHT22;20119;48.334;16.206;2023-04-23T06:46:55;18.50;99.90
33811;DHT22;20119;48.334;16.206;2023-04-23T06:49:22;17.90;99.90
33811;DHT22;20119;48.334;16.206;2023-04-23T06:51:50;17.70;99.90
33811;DHT22;20119;48.334;16.206;2023-04-23T06:54:18;17.60;99.90
33811;DHT22;20119;48.334;16.206;2023-04-23T06:56:45;18.00;99.90
33811;DHT22;20119;48.334;16.206;2023-04-23T06:59:12;18.60;99.90
33811;DHT22;20119;48.334;16.206;2023-04-23T07:01:42;19.00;99.90
33811;DHT22;20119;48.334;16.206;2023-04-23T07:04:10;19.30;99.90
33811;DHT22;20119;48.334;16.206;2023-04-23T07:06:37;19.60;99.90
33811;DHT22;20119;48.334;16.206;2023-04-23T07:09:04;19.90;99.90
33811;DHT22;20119;48.334;16.206;2023-04-23T07:11:32;20.20;99.90
33811;DHT22;20119;48.334;16.206;2023-04-23T07:14:01;20.10;99.90
33811;DHT22;20119;48.334;16.206;2023-04-23T07:16:29;19.90;99.90
33811;DHT22;20119;48.334;16.206;2023-04-23T07:19:00;19.50;99.90
33811;DHT22;20119;48.334;16.206;2023-04-23T07:21:28;19.60;99.90
33811;DHT22;20119;48.334;16.206;2023-04-23T07:23:57;19.90;99.90
33811;DHT22;20119;48.334;16.206;2023-04-23T07:26:27;20.10;99.90
33811;DHT22;20119;48.334;16.206;2023-04-23T07:28:55;20.10;99.90
33811;DHT22;20119;48.334;16.206;2023-04-23T07:31:22;20.30;99.90
33811;DHT22;20119;48.334;16.206;2023-04-23T07:33:49;20.10;99.90
33811;DHT22;20119;48.334;16.206;2023-04-23T07:36:18;19.90;99.90
33811;DHT22;20119;48.334;16.206;2023-04-23T07:38:45;19.50;99.90
33811;DHT22;20119;48.334;16.206;2023-04-23T07:41:12;19.60;99.90
33811;DHT22;20119;48.334;16.206;2023-04-23T07:43:41;19.90;99.90
33811;DHT22;20119;48.334;16.206;2023-04-23T07:46:08;20.30;99.90
33811;DHT22;20119;48.334;16.206;2023-04-23T07:48:36;20.00;99.90
33811;DHT22;20119;48.334;16.206;2023-04-23T07:51:04;21.20;99.90
33811;DHT22;20119;48.334;16.206;2023-04-23T07:53:33;21.50;99.90
33811;DHT22;20119;48.334;16.206;2023-04-23T07:56:01;22.10;99.90
33811;DHT22;20119;48.334;16.206;2023-04-23T07:58:28;22.20;99.90
33811;DHT22;20119;48.334;16.206;2023-04-23T08:00:55;22.80;99.90
33811;DHT22;20119;48.334;16.206;2023-04-23T08:03:23;23.00;99.90
33811;DHT22;20119;48.334;16.206;2023-04-23T08:05:51;23.30;99.90
33811;DHT22;20119;48.334;16.206;2023-04-23T08:08:18;23.90;99.90
33811;DHT22;20119;48.334;16.206;2023-04-23T08:10:47;22.70;99.90
33811;DHT22;20119;48.334;16.206;2023-04-23T08:13:14;22.40;99.90
33811;DHT22;20119;48.334;16.206;2023-04-23T08:15:41;23.60;99.90
33811;DHT22;20119;48.334;16.206;2023-04-23T08:18:08;23.10;99.90
33811;DHT22;20119;48.334;16.206;2023-04-23T08:20:37;23.50;99.90
33811;DHT22;20119;48.334;16.206;2023-04-23T08:23:04;22.50;99.90
33811;DHT22;20119;48.334;16.206;2023-04-23T08:25:31;21.90;99.90
33811;DHT22;20119;48.334;16.206;2023-04-23T08:28:00;21.50;99.90
33811;DHT22;20119;48.334;16.206;2023-04-23T08:30:28;21.10;99.90
33811;DHT22;20119;48.334;16.206;2023-04-23T08:32:56;21.00;99.90
33811;DHT22;20119;48.334;16.206;2023-04-23T08:35:23;20.60;99.90
33811;DHT22;20119;48.334;16.206;2023-04-23T08:37:51;19.80;99.90
33811;DHT22;20119;48.334;16.206;2023-04-23T08:40:18;20.00;99.90
33811;DHT22;20119;48.334;16.206;2023-04-23T08:42:49;19.80;99.90
33811;DHT22;20119;48.334;16.206;2023-04-23T08:45:18;20.00;99.90
33811;DHT22;20119;48.334;16.206;2023-04-23T08:47:45;20.30;99.90
33811;DHT22;20119;48.334;16.206;2023-04-23T08:50:16;20.30;99.90
33811;DHT22;20119;48.334;16.206;2023-04-23T08:52:47;20.40;99.90
33811;DHT22;20119;48.334;16.206;2023-04-23T08:55:16;20.20;99.90
33811;DHT22;20119;48.334;16.206;2023-04-23T08:57:45;20.80;99.90
33811;DHT22;20119;48.334;16.206;2023-04-23T09:00:14;20.30;99.90
33811;DHT22;20119;48.334;16.206;2023-04-23T09:02:47;20.20;99.90
33811;DHT22;20119;48.334;16.206;2023-04-23T09:05:15;20.40;99.90
33811;DHT22;20119;48.334;16.206;2023-04-23T09:07:43;21.20;99.90
33811;DHT22;20119;48.334;16.206;2023-04-23T09:10:11;22.40;99.90
33811;DHT22;20119;48.334;16.206;2023-04-23T09:12:40;22.90;99.90
33811;DHT22;20119;48.334;16.206;2023-04-23T09:15:09;23.20;99.80
33811;DHT22;20119;48.334;16.206;2023-04-23T09:17:40;22.40;99.90
33811;DHT22;20119;48.334;16.206;2023-04-23T09:20:10;21.70;99.90
33811;DHT22;20119;48.334;16.206;2023-04-23T09:22:39;21.70;99.90
33811;DHT22;20119;48.334;16.206;2023-04-23T09:25:07;22.00;99.90
33811;DHT22;20119;48.334;16.206;2023-04-23T09:27:37;22.50;99.90
33811;DHT22;20119;48.334;16.206;2023-04-23T09:30:06;23.10;99.90
33811;DHT22;20119;48.334;16.206;2023-04-23T09:32:35;23.60;99.90
33811;DHT22;20119;48.334;16.206;2023-04-23T09:35:03;22.50;99.90
33811;DHT22;20119;48.334;16.206;2023-04-23T09:37:32;22.80;99.90
33811;DHT22;20119;48.334;16.206;2023-04-23T09:40:00;22.20;99.90
33811;DHT22;20119;48.334;16.206;2023-04-23T09:42:30;22.10;99.90
33811;DHT22;20119;48.334;16.206;2023-04-23T09:44:59;22.20;99.90
33811;DHT22;20119;48.334;16.206;2023-04-23T09:47:30;22.10;99.90
33811;DHT22;20119;48.334;16.206;2023-04-23T09:49:57;21.90;99.90
33811;DHT22;20119;48.334;16.206;2023-04-23T09:52:26;21.60;99.90
33811;DHT22;20119;48.334;16.206;2023-04-23T09:54:57;20.70;99.90
33811;DHT22;20119;48.334;16.206;2023-04-23T09:57:24;20.60;99.90
33811;DHT22;20119;48.334;16.206;2023-04-23T09:59:52;21.20;99.90
33811;DHT22;20119;48.334;16.206;2023-04-23T10:02:19;21.60;99.90
33811;DHT22;20119;48.334;16.206;2023-04-23T10:04:53;21.30;99.90
33811;DHT22;20119;48.334;16.206;2023-04-23T10:07:21;21.10;99.90
33811;DHT22;20119;48.334;16.206;2023-04-23T10:09:49;20.80;99.90
33811;DHT22;20119;48.334;16.206;2023-04-23T10:12:19;20.90;99.90
33811;DHT22;20119;48.334;16.206;2023-04-23T10:14:47;21.00;99.90
33811;DHT22;20119;48.334;16.206;2023-04-23T10:17:18;20.80;99.90
33811;DHT22;20119;48.334;16.206;2023-04-23T10:19:49;20.30;99.90
33811;DHT22;20119;48.334;16.206;2023-04-23T10:22:17;20.40;99.90
33811;DHT22;20119;48.334;16.206;2023-04-23T10:24:50;20.70;99.90
33811;DHT22;20119;48.334;16.206;2023-04-23T10:27:22;20.70;99.90
33811;DHT22;20119;48.334;16.206;2023-04-23T10:29:53;20.70;99.90
33811;DHT22;20119;48.334;16.206;2023-04-23T10:32:20;20.80;99.90
33811;DHT22;20119;48.334;16.206;2023-04-23T10:34:48;21.00;99.90
33811;DHT22;20119;48.334;16.206;2023-04-23T10:37:17;21.00;99.90
33811;DHT22;20119;48.334;16.206;2023-04-23T10:39:48;21.00;99.90
33811;DHT22;20119;48.334;16.206;2023-04-23T10:42:17;21.10;99.90
33811;DHT22;20119;48.334;16.206;2023-04-23T10:44:46;21.10;99.90
33811;DHT22;20119;48.334;16.206;2023-04-23T10:47:14;21.00;99.90
33811;DHT22;20119;48.334;16.206;2023-04-23T10:49:43;21.10;99.90
33811;DHT22;20119;48.334;16.206;2023-04-23T10:52:13;21.40;99.90
33811;DHT22;20119;48.334;16.206;2023-04-23T10:54:41;21.50;99.90
33811;DHT22;20119;48.334;16.206;2023-04-23T10:57:10;21.70;99.90
33811;DHT22;20119;48.334;16.206;2023-04-23T10:59:39;22.10;99.90
33811;DHT22;20119;48.334;16.206;2023-04-23T11:02:12;22.40;99.90
33811;DHT22;20119;48.334;16.206;2023-04-23T11:04:45;22.00;99.90
33811;DHT22;20119;48.334;16.206;2023-04-23T11:07:18;22.20;99.90
33811;DHT22;20119;48.334;16.206;2023-04-23T11:09:46;22.40;99.90
33811;DHT22;20119;48.334;16.206;2023-04-23T11:12:31;22.30;99.90
33811;DHT22;20119;48.334;16.206;2023-04-23T11:15:10;22.20;99.90
33811;DHT22;20119;48.334;16.206;2023-04-23T11:18:00;21.90;99.90
33811;DHT22;20119;48.334;16.206;2023-04-23T11:20:29;21.90;99.90
33811;DHT22;20119;48.334;16.206;2023-04-23T11:22:56;22.30;99.90
33811;DHT22;20119;48.334;16.206;2023-04-23T11:25:25;22.50;99.90
33811;DHT22;20119;48.334;16.206;2023-04-23T11:27:54;22.60;99.90
33811;DHT22;20119;48.334;16.206;2023-04-23T11:30:25;22.50;99.90
33811;DHT22;20119;48.334;16.206;2023-04-23T11:32:54;22.70;99.90
33811;DHT22;20119;48.334;16.206;2023-04-23T11:35:24;22.70;99.90
33811;DHT22;20119;48.334;16.206;2023-04-23T11:37:54;22.60;99.90
33811;DHT22;20119;48.334;16.206;2023-04-23T11:40:22;23.00;99.90
33811;DHT22;20119;48.334;16.206;2023-04-23T11:42:51;23.00;99.90
33811;DHT22;20119;48.334;16.206;2023-04-23T11:45:20;22.80;99.90
33811;DHT22;20119;48.334;16.206;2023-04-23T11:47:49;22.80;99.90
33811;DHT22;20119;48.334;16.206;2023-04-23T11:50:21;22.70;99.70
33811;DHT22;20119;48.334;16.206;2023-04-23T11:52:52;22.90;99.90
33811;DHT22;20119;48.334;16.206;2023-04-23T11:55:20;23.00;99.90
33811;DHT22;20119;48.334;16.206;2023-04-23T11:57:50;23.20;99.90
33811;DHT22;20119;48.334;16.206;2023-04-23T12:00:19;23.20;99.90
33811;DHT22;20119;48.334;16.206;2023-04-23T12:02:55;23.10;99.70
33811;DHT22;20119;48.334;16.206;2023-04-23T12:05:27;23.10;99.90
33811;DHT22;20119;48.334;16.206;2023-04-23T12:08:08;23.20;98.80
33811;DHT22;20119;48.334;16.206;2023-04-23T12:10:41;22.90;98.80
33811;DHT22;20119;48.334;16.206;2023-04-23T12:13:14;22.70;98.90
33811;DHT22;20119;48.334;16.206;2023-04-23T12:15:48;23.00;99.00
33811;DHT22;20119;48.334;16.206;2023-04-23T12:18:16;23.00;98.90
33811;DHT22;20119;48.334;16.206;2023-04-23T12:20:44;23.20;99.90
33811;DHT22;20119;48.334;16.206;2023-04-23T12:23:13;23.30;98.90
33811;DHT22;20119;48.334;16.206;2023-04-23T12:25:40;23.30;98.90
33811;DHT22;20119;48.334;16.206;2023-04-23T12:28:07;23.60;98.90
33811;DHT22;20119;48.334;16.206;2023-04-23T12:30:42;23.90;97.90
33811;DHT22;20119;48.334;16.206;2023-04-23T12:33:11;23.70;97.70
33811;DHT22;20119;48.334;16.206;2023-04-23T12:35:39;23.10;98.30
33811;DHT22;20119;48.334;16.206;2023-04-23T12:38:08;23.20;98.80
33811;DHT22;20119;48.334;16.206;2023-04-23T12:40:48;23.50;97.80
33811;DHT22;20119;48.334;16.206;2023-04-23T12:43:15;23.50;98.50
33811;DHT22;20119;48.334;16.206;2023-04-23T12:45:42;23.40;98.00
33811;DHT22;20119;48.334;16.206;2023-04-23T12:48:11;23.20;97.30
33811;DHT22;20119;48.334;16.206;2023-04-23T12:50:38;23.40;98.50
33811;DHT22;20119;48.334;16.206;2023-04-23T12:53:06;23.30;99.90
33811;DHT22;20119;48.334;16.206;2023-04-23T12:55:34;23.30;97.20
33811;DHT22;20119;48.334;16.206;2023-04-23T12:58:05;23.10;98.40
33811;DHT22;20119;48.334;16.206;2023-04-23T13:00:33;23.30;97.40
33811;DHT22;20119;48.334;16.206;2023-04-23T13:03:00;23.10;98.00
33811;DHT22;20119;48.334;16.206;2023-04-23T13:05:28;23.00;97.80
33811;DHT22;20119;48.334;16.206;2023-04-23T13:07:55;23.00;98.00
33811;DHT22;20119;48.334;16.206;2023-04-23T13:10:22;23.20;97.60
33811;DHT22;20119;48.334;16.206;2023-04-23T13:12:50;23.20;98.20
33811;DHT22;20119;48.334;16.206;2023-04-23T13:15:19;23.20;98.40
33811;DHT22;20119;48.334;16.206;2023-04-23T13:17:46;23.30;97.60
33811;DHT22;20119;48.334;16.206;2023-04-23T13:20:13;23.00;98.10
33811;DHT22;20119;48.334;16.206;2023-04-23T13:22:41;22.90;98.40
33811;DHT22;20119;48.334;16.206;2023-04-23T13:25:09;22.70;98.80
33811;DHT22;20119;48.334;16.206;2023-04-23T13:27:37;22.60;98.80
33811;DHT22;20119;48.334;16.206;2023-04-23T13:30:06;22.50;98.60
33811;DHT22;20119;48.334;16.206;2023-04-23T13:32:35;22.50;99.20
33811;DHT22;20119;48.334;16.206;2023-04-23T13:35:03;22.60;98.60
33811;DHT22;20119;48.334;16.206;2023-04-23T13:37:31;23.00;98.10
33811;DHT22;20119;48.334;16.206;2023-04-23T13:39:58;23.00;97.90
33811;DHT22;20119;48.334;16.206;2023-04-23T13:42:26;22.80;98.50
33811;DHT22;20119;48.334;16.206;2023-04-23T13:44:53;23.00;98.60
33811;DHT22;20119;48.334;16.206;2023-04-23T13:47:21;23.00;98.70
33811;DHT22;20119;48.334;16.206;2023-04-23T13:49:50;23.00;98.60
33811;DHT22;20119;48.334;16.206;2023-04-23T13:52:18;22.90;96.60
33811;DHT22;20119;48.334;16.206;2023-04-23T13:54:46;22.60;97.20
33811;DHT22;20119;48.334;16.206;2023-04-23T13:57:15;22.80;97.20
33811;DHT22;20119;48.334;16.206;2023-04-23T13:59:43;23.10;98.40
33811;DHT22;20119;48.334;16.206;2023-04-23T14:02:10;23.20;97.70
33811;DHT22;20119;48.334;16.206;2023-04-23T14:04:37;23.10;98.30
33811;DHT22;20119;48.334;16.206;2023-04-23T14:07:06;23.20;98.20
33811;DHT22;20119;48.334;16.206;2023-04-23T14:09:35;23.10;98.30
33811;DHT22;20119;48.334;16.206;2023-04-23T14:12:03;23.00;98.10
33811;DHT22;20119;48.334;16.206;2023-04-23T14:14:31;23.10;96.60
33811;DHT22;20119;48.334;16.206;2023-04-23T14:17:02;23.10;96.40
33811;DHT22;20119;48.334;16.206;2023-04-23T14:19:30;23.00;96.30
33811;DHT22;20119;48.334;16.206;2023-04-23T14:21:59;23.10;96.50
33811;DHT22;20119;48.334;16.206;2023-04-23T14:24:32;23.30;95.90
33811;DHT22;20119;48.334;16.206;2023-04-23T14:27:00;23.30;94.80
33811;DHT22;20119;48.334;16.206;2023-04-23T14:29:35;23.30;95.40
33811;DHT22;20119;48.334;16.206;2023-04-23T14:32:05;23.20;95.30
33811;DHT22;20119;48.334;16.206;2023-04-23T14:34:33;23.20;95.40
33811;DHT22;20119;48.334;16.206;2023-04-23T14:37:01;23.20;95.10
33811;DHT22;20119;48.334;16.206;2023-04-23T14:39:32;23.00;94.60
33811;DHT22;20119;48.334;16.206;2023-04-23T14:42:00;23.10;94.20
33811;DHT22;20119;48.334;16.206;2023-04-23T14:44:28;23.00;95.00
33811;DHT22;20119;48.334;16.206;2023-04-23T14:46:58;23.00;94.90
33811;DHT22;20119;48.334;16.206;2023-04-23T14:49:25;22.90;96.10
33811;DHT22;20119;48.334;16.206;2023-04-23T14:51:54;22.60;95.40
33811;DHT22;20119;48.334;16.206;2023-04-23T14:54:23;22.60;97.00
33811;DHT22;20119;48.334;16.206;2023-04-23T14:56:51;22.50;95.30
33811;DHT22;20119;48.334;16.206;2023-04-23T14:59:19;22.70;95.90
33811;DHT22;20119;48.334;16.206;2023-04-23T15:01:47;22.80;94.80
33811;DHT22;20119;48.334;16.206;2023-04-23T15:04:16;22.70;96.80
33811;DHT22;20119;48.334;16.206;2023-04-23T15:06:43;22.40;96.10
33811;DHT22;20119;48.334;16.206;2023-04-23T15:09:10;22.20;95.90
33811;DHT22;20119;48.334;16.206;2023-04-23T15:11:39;22.40;96.70
33811;DHT22;20119;48.334;16.206;2023-04-23T15:14:18;22.40;96.60
33811;DHT22;20119;48.334;16.206;2023-04-23T15:16:46;22.40;97.00
33811;DHT22;20119;48.334;16.206;2023-04-23T15:19:13;22.30;95.80
33811;DHT22;20119;48.334;16.206;2023-04-23T15:21:42;22.50;95.20
33811;DHT22;20119;48.334;16.206;2023-04-23T15:24:10;22.10;95.50
33811;DHT22;20119;48.334;16.206;2023-04-23T15:26:37;22.20;95.70